This is the latest recevied weather packets stored in our database for station/object DL6DJ-15. If no packets are shown the sender has not sent any weather packets the latest 10 day(s).
| Time | Temp. | Humidity | Pressure | Rain* | Wind** | Luminosity | Snow |
|---|---|---|---|---|---|---|---|
| 1777229592 | 8.33° C | 49% | 1023.1 hPa | - | - | - | - |
| 1777229292 | 8.89° C | 48% | 1022.9 hPa | - | - | - | - |
| 1777228991 | 8.89° C | 48% | 1022.9 hPa | - | - | - | - |
| 1777228691 | 9.44° C | 46% | 1022.8 hPa | - | - | - | - |
| 1777228391 | 10° C | 45% | 1022.7 hPa | - | - | - | - |
| 1777228090 | 10.56° C | 43% | 1022.7 hPa | - | - | - | - |
| 1777227790 | 11.11° C | 41% | 1022.7 hPa | - | - | - | - |
| 1777227489 | 11.67° C | 41% | 1022.7 hPa | - | - | - | - |
| 1777227189 | 12.22° C | 39% | 1022.6 hPa | - | - | - | - |
| 1777226889 | 12.78° C | 37% | 1022.5 hPa | - | - | - | - |
| 1777226586 | 13.89° C | 35% | 1022.5 hPa | - | - | - | - |
| 1777226285 | 14.44° C | 31% | 1022.4 hPa | - | - | - | - |
| 1777225985 | 14.44° C | 30% | 1022.5 hPa | - | - | - | - |
| 1777225684 | 15° C | 27% | 1022.3 hPa | - | - | - | - |
| 1777225384 | 15° C | 27% | 1022.4 hPa | - | - | - | - |
| 1777225084 | 15° C | 27% | 1022.4 hPa | - | - | - | - |
| 1777224783 | 15.56° C | 28% | 1022.5 hPa | - | - | - | - |
| 1777224483 | 15.56° C | 28% | 1022.4 hPa | - | - | - | - |
| 1777224182 | 16.11° C | 27% | 1022.4 hPa | - | - | - | - |
| 1777223882 | 16.11° C | 27% | 1022.5 hPa | - | - | - | - |
| 1777223582 | 16.11° C | 29% | 1022.5 hPa | - | - | - | - |
| 1777223281 | 16.67° C | 28% | 1022.5 hPa | - | - | - | - |
| 1777222981 | 16.11° C | 27% | 1022.5 hPa | - | - | - | - |
| 1777222680 | 16.11° C | 27% | 1022.5 hPa | - | - | - | - |
| 1777222380 | 16.11° C | 30% | 1022.5 hPa | - | - | - | - |
* Rain since midnight (hover to see other rain measurements)
** Current wind speed in m/s (hover to see current wind gust speed)